createdAt,value
2018-07-19T00:01:12.615Z,3.80
2018-07-19T00:03:40.454Z,3.60
2018-07-19T00:06:08.500Z,4.17
2018-07-19T00:08:36.548Z,4.00
2018-07-19T00:11:04.588Z,4.08
2018-07-19T00:13:33.164Z,4.30
2018-07-19T00:16:01.212Z,4.03
2018-07-19T00:18:29.259Z,3.87
2018-07-19T00:20:58.047Z,3.85
2018-07-19T00:23:26.652Z,4.37
2018-07-19T00:25:55.552Z,4.05
2018-07-19T00:28:23.848Z,4.75
2018-07-19T00:30:52.035Z,3.58
2018-07-19T00:33:20.225Z,3.77
2018-07-19T00:35:48.295Z,4.17
2018-07-19T00:38:16.500Z,4.40
2018-07-19T00:40:44.677Z,3.75
2018-07-19T00:43:12.971Z,4.37
2018-07-19T00:45:41.011Z,3.92
2018-07-19T00:48:09.068Z,4.20
2018-07-19T00:50:37.125Z,3.95
2018-07-19T00:53:05.315Z,5.33
2018-07-19T00:55:33.596Z,4.03
2018-07-19T00:58:01.649Z,5.90
2018-07-19T01:00:29.487Z,3.77
2018-07-19T01:02:57.536Z,4.12
2018-07-19T01:05:25.593Z,4.12
2018-07-19T01:07:53.627Z,4.08
2018-07-19T01:10:21.707Z,3.87
2018-07-19T01:12:49.755Z,4.22
2018-07-19T01:15:17.796Z,3.92
2018-07-19T01:17:45.848Z,4.05
2018-07-19T01:20:13.888Z,4.10
2018-07-19T01:22:41.933Z,5.00
2018-07-19T01:25:09.972Z,4.60
2018-07-19T01:27:38.016Z,4.45
2018-07-19T01:30:06.376Z,4.50
2018-07-19T01:32:34.572Z,4.60
2018-07-19T01:35:02.606Z,4.42
2018-07-19T01:37:30.644Z,4.42
2018-07-19T01:39:58.685Z,4.45
2018-07-19T01:42:32.416Z,4.80
2018-07-19T01:45:00.498Z,4.90
2018-07-19T01:47:28.568Z,4.92
2018-07-19T01:49:56.615Z,4.65
2018-07-19T01:52:24.663Z,5.35
2018-07-19T01:54:52.712Z,5.00
2018-07-19T01:57:20.936Z,4.70
2018-07-19T01:59:49.544Z,5.05
2018-07-19T02:02:17.859Z,5.05
2018-07-19T02:04:45.912Z,4.87
2018-07-19T02:07:13.956Z,4.70
2018-07-19T02:09:42.008Z,4.80
2018-07-19T02:12:10.068Z,4.97
2018-07-19T02:14:38.116Z,5.10
2018-07-19T02:17:06.204Z,5.55
2018-07-19T02:19:34.284Z,4.70
2018-07-19T02:22:02.512Z,5.47
2018-07-19T02:24:30.584Z,4.92
2018-07-19T02:26:58.653Z,4.80
2018-07-19T02:29:26.708Z,5.03
2018-07-19T02:31:54.771Z,5.20
2018-07-19T02:34:22.843Z,5.50
2018-07-19T02:36:50.895Z,6.47
2018-07-19T02:39:18.960Z,5.47
2018-07-19T02:41:47.020Z,4.95
2018-07-19T02:44:15.272Z,5.37
2018-07-19T02:46:44.167Z,4.67
2018-07-19T02:49:12.567Z,5.35
2018-07-19T02:51:41.567Z,5.70
2018-07-19T02:54:09.635Z,5.67
2018-07-19T02:56:37.702Z,5.53
2018-07-19T02:59:05.780Z,5.12
2018-07-19T03:01:33.840Z,4.97
2018-07-19T03:04:01.909Z,5.10
2018-07-19T03:06:30.087Z,4.47
2018-07-19T03:08:58.107Z,5.00
2018-07-19T03:11:26.152Z,6.03
2018-07-19T03:13:54.190Z,5.08
2018-07-19T03:16:22.232Z,4.97
2018-07-19T03:18:50.295Z,5.10
2018-07-19T03:21:18.337Z,5.60
2018-07-19T03:23:46.384Z,6.00
2018-07-19T03:26:14.427Z,5.55
2018-07-19T03:28:49.191Z,4.75
2018-07-19T03:31:17.655Z,5.17
2018-07-19T03:33:45.716Z,4.72
2018-07-19T03:36:13.752Z,5.47
2018-07-19T03:38:41.804Z,5.28
2018-07-19T03:41:09.844Z,5.30
2018-07-19T03:43:37.900Z,5.17
2018-07-19T03:46:05.940Z,5.55
2018-07-19T03:48:33.988Z,4.85
2018-07-19T03:51:02.025Z,5.00
2018-07-19T03:53:30.096Z,5.75
2018-07-19T03:55:58.211Z,4.58
2018-07-19T03:58:26.248Z,4.92
2018-07-19T04:00:54.284Z,5.70
2018-07-19T04:03:22.328Z,4.72
2018-07-19T04:05:50.375Z,4.95
2018-07-19T04:08:18.431Z,4.65
2018-07-19T04:10:46.468Z,4.42
2018-07-19T04:13:14.508Z,5.30
2018-07-19T04:15:42.559Z,4.97
2018-07-19T04:18:10.623Z,4.80
2018-07-19T04:20:38.684Z,4.95
2018-07-19T04:23:06.759Z,5.30
2018-07-19T04:25:34.824Z,5.22
2018-07-19T04:28:02.879Z,5.50
2018-07-19T04:30:30.960Z,5.80
2018-07-19T04:32:59.020Z,4.92
2018-07-19T04:35:27.092Z,5.40
2018-07-19T04:37:55.149Z,5.83
2018-07-19T04:40:23.208Z,6.55
2018-07-19T04:42:51.271Z,6.00
2018-07-19T04:45:19.340Z,5.53
2018-07-19T04:47:47.400Z,5.15
2018-07-19T04:50:15.471Z,6.00
2018-07-19T04:52:43.534Z,4.70
2018-07-19T04:55:11.605Z,5.62
2018-07-19T04:57:39.680Z,5.15
2018-07-19T05:00:07.732Z,5.55
2018-07-19T05:02:35.804Z,4.50
2018-07-19T05:05:03.893Z,5.47
2018-07-19T05:07:31.940Z,5.00
2018-07-19T05:10:00.005Z,5.20
2018-07-19T05:12:28.075Z,5.05
2018-07-19T05:14:56.152Z,5.00
2018-07-19T05:17:24.208Z,5.47
2018-07-19T05:19:52.287Z,5.10
2018-07-19T05:22:20.348Z,4.55
2018-07-19T05:24:48.416Z,4.50
2018-07-19T05:27:16.467Z,4.62
2018-07-19T05:29:44.556Z,4.30
2018-07-19T05:32:12.644Z,4.47
2018-07-19T05:34:40.813Z,4.87
2018-07-19T05:37:08.772Z,4.10
2018-07-19T05:39:36.836Z,4.60
2018-07-19T05:42:04.941Z,4.20
2018-07-19T05:44:33.053Z,4.35
2018-07-19T05:47:01.074Z,4.33
2018-07-19T05:49:29.131Z,4.20
2018-07-19T05:51:57.194Z,4.05
2018-07-19T05:54:25.254Z,4.22
2018-07-19T05:56:53.319Z,4.22
2018-07-19T05:59:21.550Z,3.80
2018-07-19T06:01:49.700Z,4.22
2018-07-19T06:04:17.772Z,3.95
2018-07-19T06:06:45.840Z,4.10
2018-07-19T06:09:13.907Z,3.40
2018-07-19T06:11:41.983Z,4.67
2018-07-19T06:14:10.045Z,4.42
2018-07-19T06:16:38.116Z,3.92
2018-07-19T06:19:06.412Z,3.95
2018-07-19T06:21:34.480Z,3.87
2018-07-19T06:24:02.536Z,3.80
2018-07-19T06:26:30.603Z,3.85
2018-07-19T06:28:58.675Z,3.15
2018-07-19T06:31:26.751Z,3.25
2018-07-19T06:33:54.825Z,3.60
2018-07-19T06:36:22.892Z,4.22
2018-07-19T06:38:50.959Z,3.40
2018-07-19T06:41:19.056Z,3.00
2018-07-19T06:43:47.100Z,3.30
2018-07-19T06:46:15.164Z,3.33
2018-07-19T06:48:43.240Z,4.40
2018-07-19T06:51:11.311Z,2.60
2018-07-19T06:53:39.384Z,3.10
2018-07-19T06:56:07.447Z,3.20
2018-07-19T06:58:35.287Z,3.10
2018-07-19T07:01:03.355Z,3.17
2018-07-19T07:03:31.498Z,3.33
2018-07-19T07:05:59.512Z,2.83
2018-07-19T07:08:27.584Z,2.80
2018-07-19T07:10:55.656Z,2.97
2018-07-19T07:13:23.578Z,3.07
2018-07-19T07:15:51.645Z,3.40
2018-07-19T07:18:19.716Z,2.80
2018-07-19T07:20:48.849Z,2.80
2018-07-19T07:23:16.911Z,2.97
2018-07-19T07:25:47.792Z,2.80
2018-07-19T07:28:15.983Z,3.30
2018-07-19T07:30:44.088Z,3.20
2018-07-19T07:33:12.816Z,3.20
2018-07-19T07:35:40.897Z,2.77
2018-07-19T07:38:08.952Z,3.00
2018-07-19T07:40:37.015Z,2.93
2018-07-19T07:43:05.857Z,2.43
2018-07-19T07:45:33.940Z,3.70
2018-07-19T07:48:02.027Z,3.63
2018-07-19T07:50:30.088Z,3.20
2018-07-19T07:52:58.151Z,2.70
2018-07-19T07:55:26.227Z,2.57
2018-07-19T07:57:54.416Z,2.93
2018-07-19T08:00:22.478Z,2.90
2018-07-19T08:02:50.804Z,2.80
2018-07-19T08:05:18.884Z,3.27
2018-07-19T08:07:47.278Z,2.85
2018-07-19T08:10:15.459Z,2.95
2018-07-19T08:12:43.648Z,2.70
2018-07-19T08:15:11.717Z,2.77
2018-07-19T08:17:39.787Z,2.50
2018-07-19T08:20:07.844Z,3.00
2018-07-19T08:22:35.917Z,2.90
2018-07-19T08:25:04.324Z,2.70
2018-07-19T08:27:32.392Z,2.63
2018-07-19T08:30:00.452Z,2.63
2018-07-19T08:32:28.568Z,2.60
2018-07-19T08:34:57.016Z,2.67
2018-07-19T08:37:25.144Z,2.40
2018-07-19T08:39:53.282Z,2.70
2018-07-19T08:42:21.379Z,2.73
2018-07-19T08:44:49.444Z,2.50
2018-07-19T08:47:17.516Z,2.50
2018-07-19T08:49:47.067Z,2.90
2018-07-19T08:52:15.664Z,3.07
2018-07-19T08:54:43.848Z,2.70
2018-07-19T08:57:11.940Z,2.60
2018-07-19T08:59:39.996Z,2.70
2018-07-19T09:02:08.061Z,2.60
2018-07-19T09:04:35.988Z,2.50
2018-07-19T09:07:04.091Z,3.20
2018-07-19T09:09:32.172Z,2.83
2018-07-19T09:12:00.252Z,2.20
2018-07-19T09:14:28.320Z,3.30
2018-07-19T09:16:56.520Z,2.50
2018-07-19T09:19:24.637Z,2.63
2018-07-19T09:21:52.697Z,3.10
2018-07-19T09:24:20.744Z,2.90
2018-07-19T09:26:48.808Z,2.77
2018-07-19T09:29:16.848Z,3.00
2018-07-19T09:31:44.912Z,3.30
2018-07-19T09:34:12.952Z,3.37
2018-07-19T09:36:41.003Z,2.50
2018-07-19T09:39:11.215Z,2.50
2018-07-19T09:41:39.517Z,2.93
2018-07-19T09:44:07.695Z,2.70
2018-07-19T09:46:35.790Z,2.63
2018-07-19T09:49:03.836Z,2.97
2018-07-19T09:51:31.995Z,3.10
2018-07-19T09:54:00.240Z,2.70
2018-07-19T09:56:28.541Z,3.20
2018-07-19T09:58:56.583Z,2.60
2018-07-19T10:01:24.624Z,2.97
2018-07-19T10:03:52.665Z,2.77
2018-07-19T10:06:21.284Z,2.90
2018-07-19T10:08:49.476Z,3.20
2018-07-19T10:11:17.507Z,2.83
2018-07-19T10:13:46.164Z,3.40
2018-07-19T10:16:14.163Z,3.37
2018-07-19T10:18:42.429Z,3.30
2018-07-19T10:21:10.486Z,2.70
2018-07-19T10:23:38.592Z,2.90
2018-07-19T10:26:06.636Z,3.40
2018-07-19T10:28:34.728Z,3.23
2018-07-19T10:31:02.763Z,2.87
2018-07-19T10:33:30.824Z,2.90
2018-07-19T10:35:58.920Z,2.93
2018-07-19T10:38:27.039Z,3.10
2018-07-19T10:40:55.155Z,3.27
2018-07-19T10:43:23.576Z,3.07
2018-07-19T10:45:51.672Z,3.53
2018-07-19T10:48:19.900Z,3.10
2018-07-19T10:50:47.956Z,2.87
2018-07-19T10:53:16.121Z,3.00
2018-07-19T10:55:44.187Z,2.97
2018-07-19T10:58:13.058Z,3.70
2018-07-19T11:00:41.096Z,3.07
2018-07-19T11:03:09.186Z,3.20
2018-07-19T11:05:37.251Z,2.80
2018-07-19T11:08:05.361Z,2.83
2018-07-19T11:10:33.437Z,3.50
2018-07-19T11:13:01.521Z,3.57
2018-07-19T11:15:29.932Z,2.67
2018-07-19T11:17:58.015Z,3.90
2018-07-19T11:20:26.091Z,3.50
2018-07-19T11:22:54.657Z,3.60
2018-07-19T11:25:22.804Z,3.70
2018-07-19T11:27:50.876Z,3.00
2018-07-19T11:30:19.028Z,3.37
2018-07-19T11:32:47.084Z,3.57
2018-07-19T11:35:15.156Z,3.60
2018-07-19T11:37:43.223Z,3.20
2018-07-19T11:40:12.013Z,3.40
2018-07-19T11:42:40.080Z,4.10
2018-07-19T11:45:08.147Z,3.43
2018-07-19T11:47:36.348Z,3.40
2018-07-19T11:50:04.940Z,3.50
2018-07-19T11:52:33.997Z,3.90
2018-07-19T11:55:02.196Z,3.37
2018-07-19T11:57:30.283Z,3.17
2018-07-19T11:59:58.729Z,3.47
2018-07-19T12:02:26.800Z,4.00
2018-07-19T12:04:54.911Z,2.97
2018-07-19T12:07:23.515Z,3.73
2018-07-19T12:09:51.752Z,3.13
2018-07-19T12:12:19.833Z,4.20
2018-07-19T12:14:47.889Z,3.57
2018-07-19T12:17:16.049Z,2.83
2018-07-19T12:19:44.120Z,2.90
2018-07-19T12:22:12.754Z,3.10
2018-07-19T12:24:40.805Z,3.37
2018-07-19T12:27:09.354Z,3.07
2018-07-19T12:29:37.460Z,2.80
2018-07-19T12:32:05.528Z,3.23
2018-07-19T12:34:33.723Z,2.70
2018-07-19T12:37:01.756Z,2.60
2018-07-19T12:39:29.803Z,3.10
2018-07-19T12:41:57.848Z,2.90
2018-07-19T12:44:25.904Z,3.10
2018-07-19T12:46:53.948Z,3.07
2018-07-19T12:49:22.008Z,3.00
2018-07-19T12:51:50.051Z,3.20
2018-07-19T12:54:18.515Z,3.33
2018-07-19T12:56:46.536Z,2.83
2018-07-19T12:59:14.579Z,3.20
2018-07-19T13:01:42.638Z,3.17
2018-07-19T13:04:10.689Z,2.67
2018-07-19T13:06:38.732Z,2.80
2018-07-19T13:09:08.048Z,2.87
2018-07-19T13:11:36.259Z,2.60
2018-07-19T13:14:04.316Z,3.00
2018-07-19T13:16:32.874Z,3.20
2018-07-19T13:19:00.955Z,2.77
2018-07-19T13:21:30.364Z,3.10
2018-07-19T13:23:58.444Z,2.97
2018-07-19T13:26:26.584Z,3.57
2018-07-19T13:28:54.778Z,2.87
2018-07-19T13:31:22.844Z,3.10
2018-07-19T13:33:51.052Z,2.90
2018-07-19T13:36:19.532Z,2.70
2018-07-19T13:38:47.683Z,3.07
2018-07-19T13:41:15.752Z,3.17
2018-07-19T13:43:44.853Z,3.20
2018-07-19T13:46:16.325Z,2.67
2018-07-19T13:48:44.380Z,2.70
2018-07-19T13:51:12.833Z,3.10
2018-07-19T13:53:54.332Z,2.90
2018-07-19T13:56:22.376Z,2.97
2018-07-19T13:58:50.425Z,3.03
2018-07-19T14:01:24.168Z,2.63
2018-07-19T14:03:52.514Z,2.70
2018-07-19T14:06:20.565Z,2.93
2018-07-19T14:08:48.616Z,2.80
2018-07-19T14:11:16.657Z,2.67
2018-07-19T14:13:44.726Z,3.00
2018-07-19T14:16:13.260Z,3.20
2018-07-19T14:18:41.307Z,3.27
2018-07-19T14:21:09.148Z,2.87
2018-07-19T14:23:37.192Z,2.83
2018-07-19T14:26:05.298Z,3.13
2018-07-19T14:28:33.343Z,3.10
2018-07-19T14:31:01.400Z,2.70
2018-07-19T14:33:29.834Z,3.13
2018-07-19T14:35:57.663Z,3.10
2018-07-19T14:38:26.068Z,2.90
2018-07-19T14:40:54.165Z,2.70
2018-07-19T14:43:22.290Z,3.23
2018-07-19T14:45:50.395Z,2.73
2018-07-19T14:48:18.449Z,3.07
2018-07-19T14:50:46.517Z,3.43
2018-07-19T14:53:14.612Z,3.20
2018-07-19T14:55:42.668Z,3.10
2018-07-19T14:58:11.421Z,3.10
2018-07-19T15:00:39.472Z,2.70
2018-07-19T15:03:08.040Z,2.70
2018-07-19T15:05:36.119Z,3.20
2018-07-19T15:08:04.167Z,3.20
2018-07-19T15:10:32.288Z,3.40
2018-07-19T15:13:00.785Z,2.87
2018-07-19T15:15:29.014Z,3.30
2018-07-19T15:17:57.008Z,3.23
2018-07-19T15:20:25.079Z,3.50
2018-07-19T15:22:53.120Z,3.17
2018-07-19T15:25:21.189Z,3.23
2018-07-19T15:27:50.704Z,3.37
2018-07-19T15:30:18.748Z,3.50
2018-07-19T15:32:47.801Z,3.00
2018-07-19T15:35:15.858Z,3.17
2018-07-19T15:37:43.900Z,2.70
2018-07-19T15:40:12.027Z,3.47
2018-07-19T15:42:40.605Z,3.07
2018-07-19T15:45:08.734Z,2.97
2018-07-19T15:47:37.678Z,3.20
2018-07-19T15:50:05.731Z,3.13
2018-07-19T15:52:35.078Z,3.40
2018-07-19T15:55:03.135Z,4.47
2018-07-19T15:57:32.096Z,3.67
2018-07-19T16:00:00.148Z,2.90
2018-07-19T16:02:28.200Z,3.17
2018-07-19T16:04:56.239Z,2.70
2018-07-19T16:07:24.287Z,3.20
2018-07-19T16:09:52.348Z,3.83
2018-07-19T16:12:20.435Z,3.50
2018-07-19T16:14:48.532Z,3.60
2018-07-19T16:17:16.601Z,2.60
2018-07-19T16:19:44.700Z,3.30
2018-07-19T16:22:12.768Z,3.23
2018-07-19T16:24:40.912Z,3.00
2018-07-19T16:27:08.984Z,3.83
2018-07-19T16:29:37.051Z,3.80
2018-07-19T16:32:05.116Z,3.20
2018-07-19T16:34:33.190Z,4.23
2018-07-19T16:37:01.251Z,3.77
2018-07-19T16:39:29.307Z,3.80
2018-07-19T16:41:57.421Z,3.30
2018-07-19T16:44:25.480Z,3.57
2018-07-19T16:46:53.561Z,3.60
2018-07-19T16:49:21.625Z,3.30
2018-07-19T16:51:49.715Z,3.70
2018-07-19T16:54:17.775Z,3.87
2018-07-19T16:56:45.888Z,3.20
2018-07-19T16:59:13.952Z,3.20
2018-07-19T17:01:42.024Z,3.20
2018-07-19T17:04:10.088Z,3.60
2018-07-19T17:06:38.165Z,3.70
2018-07-19T17:09:08.103Z,3.63
2018-07-19T17:11:36.180Z,3.80
2018-07-19T17:14:04.257Z,3.43
2018-07-19T17:16:32.332Z,4.83
2018-07-19T17:19:00.392Z,3.80
2018-07-19T17:21:28.486Z,3.87
2018-07-19T17:23:56.603Z,3.90
2018-07-19T17:26:24.664Z,4.20
2018-07-19T17:28:52.586Z,3.37
2018-07-19T17:31:21.211Z,3.60
2018-07-19T17:33:49.282Z,4.70
2018-07-19T17:36:17.366Z,3.25
2018-07-19T17:38:45.526Z,4.57
2018-07-19T17:41:13.562Z,3.90
2018-07-19T17:43:41.616Z,4.20
2018-07-19T17:46:09.676Z,3.70
2018-07-19T17:48:37.758Z,3.35
2018-07-19T17:51:06.013Z,3.70
2018-07-19T17:53:34.873Z,3.47
2018-07-19T17:56:02.914Z,3.93
2018-07-19T17:58:30.976Z,3.55
2018-07-19T18:00:59.028Z,3.57
2018-07-19T18:03:27.087Z,3.95
2018-07-19T18:05:55.140Z,3.75
2018-07-19T18:08:23.196Z,2.83
2018-07-19T18:10:51.267Z,2.80
2018-07-19T18:13:19.315Z,3.27
2018-07-19T18:15:47.450Z,3.25
2018-07-19T18:18:15.556Z,3.50
2018-07-19T18:20:43.690Z,3.35
2018-07-19T18:23:11.737Z,3.50
2018-07-19T18:25:39.825Z,3.92
2018-07-19T18:28:07.888Z,3.60
2018-07-19T18:30:35.939Z,3.75
2018-07-19T18:33:03.980Z,3.20
2018-07-19T18:35:32.024Z,3.10
2018-07-19T18:38:00.260Z,3.35
2018-07-19T18:40:28.297Z,3.37
2018-07-19T18:42:56.537Z,3.35
2018-07-19T18:45:24.572Z,3.77
2018-07-19T18:47:52.714Z,3.50
2018-07-19T18:50:20.713Z,3.45
2018-07-19T18:52:48.828Z,3.45
2018-07-19T18:55:16.884Z,3.50
2018-07-19T18:57:44.961Z,3.87
2018-07-19T19:00:13.004Z,3.40
2018-07-19T19:02:41.070Z,3.40
2018-07-19T19:05:09.146Z,3.40
2018-07-19T19:07:37.204Z,3.62
2018-07-19T19:10:05.260Z,3.75
2018-07-19T19:12:33.340Z,3.90
2018-07-19T19:15:01.540Z,3.60
2018-07-19T19:17:29.591Z,3.10
2018-07-19T19:19:57.673Z,3.67
2018-07-19T19:22:25.733Z,3.80
2018-07-19T19:24:53.784Z,3.98
2018-07-19T19:27:21.839Z,3.75
2018-07-19T19:29:49.875Z,3.05
2018-07-19T19:32:17.929Z,3.33
2018-07-19T19:34:45.972Z,3.80
2018-07-19T19:37:14.008Z,4.42
2018-07-19T19:39:42.055Z,4.28
2018-07-19T19:42:10.163Z,4.17
2018-07-19T19:44:38.196Z,4.25
2018-07-19T19:47:06.256Z,3.58
2018-07-19T19:49:34.307Z,3.37
2018-07-19T19:52:02.384Z,3.80
2018-07-19T19:54:30.419Z,3.62
2018-07-19T19:56:58.483Z,3.65
2018-07-19T19:59:26.542Z,4.62
2018-07-19T20:01:54.584Z,3.72
2018-07-19T20:04:22.735Z,3.60
2018-07-19T20:06:50.755Z,4.03
2018-07-19T20:09:18.860Z,4.17
2018-07-19T20:11:46.911Z,5.25
2018-07-19T20:14:14.967Z,4.00
2018-07-19T20:16:43.008Z,4.33
2018-07-19T20:19:11.095Z,4.10
2018-07-19T20:21:39.172Z,3.72
2018-07-19T20:24:07.268Z,3.98
2018-07-19T20:26:35.961Z,4.35
2018-07-19T20:29:04.028Z,4.17
2018-07-19T20:31:32.136Z,3.50
2018-07-19T20:34:00.184Z,3.72
2018-07-19T20:36:28.280Z,4.35
2018-07-19T20:38:56.651Z,3.33
2018-07-19T20:41:24.743Z,3.72
2018-07-19T20:43:52.793Z,3.58
2018-07-19T20:46:20.888Z,3.90
2018-07-19T20:48:48.952Z,3.83
2018-07-19T20:51:17.003Z,4.85
2018-07-19T20:53:45.920Z,4.00
2018-07-19T20:56:13.971Z,4.10
2018-07-19T20:58:42.044Z,4.28
2018-07-19T21:01:10.124Z,3.72
2018-07-19T21:03:38.228Z,4.67
2018-07-19T21:06:06.308Z,3.65
2018-07-19T21:08:34.400Z,4.03
2018-07-19T21:11:02.459Z,4.37
2018-07-19T21:13:30.535Z,4.55
2018-07-19T21:15:58.651Z,4.37
2018-07-19T21:18:26.750Z,3.80
2018-07-19T21:20:54.894Z,3.80
2018-07-19T21:23:22.936Z,3.92
2018-07-19T21:25:50.991Z,4.25
2018-07-19T21:28:19.061Z,4.35
2018-07-19T21:30:47.171Z,3.98
2018-07-19T21:33:15.233Z,4.05
2018-07-19T21:35:43.283Z,4.20
2018-07-19T21:38:11.136Z,3.62
2018-07-19T21:40:39.187Z,3.80
2018-07-19T21:43:07.252Z,4.10
2018-07-19T21:45:35.312Z,4.15
2018-07-19T21:48:03.380Z,4.30
2018-07-19T21:50:31.444Z,4.22
2018-07-19T21:52:59.595Z,3.87
2018-07-19T21:55:27.648Z,4.30
2018-07-19T21:57:55.857Z,4.12
2018-07-19T22:00:23.910Z,4.10
2018-07-19T22:02:51.973Z,4.33
2018-07-19T22:05:20.025Z,3.92
2018-07-19T22:07:48.112Z,4.20
2018-07-19T22:10:16.167Z,3.75
2018-07-19T22:12:44.220Z,4.30
2018-07-19T22:15:12.293Z,4.90
2018-07-19T22:17:40.353Z,4.47
2018-07-19T22:20:08.424Z,4.00
2018-07-19T22:22:36.467Z,3.83
2018-07-19T22:25:04.406Z,4.03
2018-07-19T22:27:32.440Z,5.20
2018-07-19T22:30:00.508Z,4.37
2018-07-19T22:32:28.536Z,5.05
2018-07-19T22:34:56.636Z,4.00
2018-07-19T22:37:24.675Z,4.70
2018-07-19T22:39:52.721Z,4.22
2018-07-19T22:42:20.760Z,4.65
2018-07-19T22:44:48.804Z,4.75
2018-07-19T22:47:16.848Z,4.05
2018-07-19T22:49:44.897Z,4.90
2018-07-19T22:52:12.963Z,4.60
2018-07-19T22:54:41.212Z,4.40
2018-07-19T22:57:09.243Z,3.92
2018-07-19T22:59:37.284Z,4.15
2018-07-19T23:02:05.467Z,3.83
2018-07-19T23:04:33.464Z,4.45
2018-07-19T23:07:01.513Z,3.95
2018-07-19T23:09:29.561Z,4.60
2018-07-19T23:11:57.589Z,4.55
2018-07-19T23:14:25.788Z,4.50
2018-07-19T23:16:53.823Z,4.40
2018-07-19T23:19:21.872Z,4.62
2018-07-19T23:21:49.911Z,4.97
2018-07-19T23:24:17.959Z,4.78
2018-07-19T23:26:45.988Z,4.90
2018-07-19T23:29:14.028Z,4.45
2018-07-19T23:31:42.109Z,5.35
2018-07-19T23:34:10.155Z,5.37
2018-07-19T23:36:46.739Z,5.37
2018-07-19T23:39:20.468Z,4.70
2018-07-19T23:41:52.433Z,4.58
2018-07-19T23:44:25.056Z,5.60
2018-07-19T23:46:56.896Z,5.40
2018-07-19T23:49:24.937Z,5.40
2018-07-19T23:51:53.227Z,5.15
2018-07-19T23:54:21.263Z,5.15
2018-07-19T23:56:49.308Z,5.37
2018-07-19T23:59:17.372Z,5.37
